createdAt,value
2018-05-31T00:00:02.078Z,12.5
2018-05-31T00:00:51.839Z,12.5
2018-05-31T00:01:42.214Z,12.4
2018-05-31T00:02:31.994Z,12.4
2018-05-31T00:03:22.335Z,12.4
2018-05-31T00:04:12.380Z,12.4
2018-05-31T00:05:02.484Z,12.3
2018-05-31T00:05:52.567Z,12.3
2018-05-31T00:06:43.326Z,12.3
2018-05-31T00:07:32.669Z,12.3
2018-05-31T00:08:22.760Z,12.2
2018-05-31T00:09:12.818Z,12.1
2018-05-31T00:10:03.637Z,12.1
2018-05-31T00:10:52.332Z,12.1
2018-05-31T00:11:42.681Z,12.1
2018-05-31T00:12:33.043Z,12.1
2018-05-31T00:13:24.399Z,12
2018-05-31T00:14:12.884Z,11.9
2018-05-31T00:15:03.227Z,11.9
2018-05-31T00:15:52.702Z,11.9
2018-05-31T00:16:43.579Z,11.9
2018-05-31T00:17:33.407Z,11.9
2018-05-31T00:18:23.187Z,11.8
2018-05-31T00:19:13.544Z,11.8
2018-05-31T00:20:03.324Z,11.8
2018-05-31T00:20:53.687Z,11.8
2018-05-31T00:21:43.755Z,11.7
2018-05-31T00:22:33.817Z,11.6
2018-05-31T00:23:23.560Z,11.6
2018-05-31T00:24:13.646Z,11.6
2018-05-31T00:25:04.248Z,11.6
2018-05-31T00:25:54.068Z,11.6
2018-05-31T00:26:44.134Z,11.5
2018-05-31T00:27:34.177Z,11.4
2018-05-31T00:28:24.255Z,11.4
2018-05-31T00:29:13.767Z,11.4
2018-05-31T00:30:04.399Z,11.4
2018-05-31T00:30:54.146Z,11.4
2018-05-31T00:31:44.510Z,11.4
2018-05-31T00:32:34.574Z,11.3
2018-05-31T00:33:24.616Z,11.3
2018-05-31T00:34:14.409Z,11.3
2018-05-31T00:35:04.464Z,11.3
2018-05-31T00:35:54.791Z,11.3
2018-05-31T00:36:44.589Z,11.2
2018-05-31T00:37:34.927Z,11.2
2018-05-31T00:38:25.006Z,11.1
2018-05-31T00:39:15.865Z,11.1
2018-05-31T00:40:04.839Z,11.1
2018-05-31T00:40:55.210Z,11.1
2018-05-31T00:41:44.970Z,11.1
2018-05-31T00:42:35.946Z,11.1
2018-05-31T00:43:24.825Z,11.1
2018-05-31T00:44:15.439Z,11
2018-05-31T00:45:05.530Z,11
2018-05-31T00:45:57.159Z,11
2018-05-31T00:46:45.639Z,10.9
2018-05-31T00:47:34.830Z,10.9
2018-05-31T00:48:25.487Z,10.9
2018-05-31T00:49:18.603Z,10.9
2018-05-31T00:50:05.613Z,10.9
2018-05-31T00:50:55.958Z,10.9
2018-05-31T00:51:45.437Z,10.9
2018-05-31T00:52:36.084Z,10.8
2018-05-31T00:53:25.854Z,10.8
2018-05-31T00:54:16.319Z,10.8
2018-05-31T00:55:06.313Z,10.8
2018-05-31T00:55:55.466Z,10.8
2018-05-31T00:56:46.120Z,10.8
2018-05-31T00:57:36.472Z,10.8
2018-05-31T00:58:26.233Z,10.7
2018-05-31T00:59:16.575Z,10.7
2018-05-31T01:00:06.655Z,10.7
2018-05-31T01:00:56.727Z,10.7
2018-05-31T01:01:46.794Z,10.7
2018-05-31T01:02:36.562Z,10.7
2018-05-31T01:03:26.922Z,10.7
2018-05-31T01:04:16.672Z,10.6
2018-05-31T01:05:07.054Z,10.6
2018-05-31T01:05:56.534Z,10.6
2018-05-31T01:06:47.165Z,10.6
2018-05-31T01:07:37.233Z,10.6
2018-05-31T01:08:27.638Z,10.6
2018-05-31T01:09:17.363Z,10.6
2018-05-31T01:10:07.434Z,10.5
2018-05-31T01:10:57.189Z,10.5
2018-05-31T01:11:48.653Z,10.5
2018-05-31T01:12:37.324Z,10.5
2018-05-31T01:13:27.090Z,10.4
2018-05-31T01:14:17.736Z,10.4
2018-05-31T01:15:08.916Z,10.4
2018-05-31T01:15:57.586Z,10.4
2018-05-31T01:16:47.941Z,10.4
2018-05-31T01:17:37.998Z,10.4
2018-05-31T01:18:30.094Z,10.4
2018-05-31T01:19:17.630Z,10.4
2018-05-31T01:20:07.593Z,10.4
2018-05-31T01:20:57.964Z,10.4
2018-05-31T01:21:48.972Z,10.4
2018-05-31T01:22:37.784Z,10.4
2018-05-31T01:23:28.442Z,10.4
2018-05-31T01:24:18.482Z,10.3
2018-05-31T01:25:08.566Z,10.3
2018-05-31T01:25:58.869Z,10.3
2018-05-31T01:26:48.404Z,10.3
2018-05-31T01:27:38.458Z,10.3
2018-05-31T01:28:28.539Z,10.3
2018-05-31T01:29:18.894Z,10.3
2018-05-31T01:30:08.972Z,10.3
2018-05-31T01:30:58.994Z,10.3
2018-05-31T01:31:49.057Z,10.3
2018-05-31T01:32:39.143Z,10.3
2018-05-31T01:33:28.909Z,10.3
2018-05-31T01:34:18.987Z,10.3
2018-05-31T01:35:09.365Z,10.3
2018-05-31T01:35:59.386Z,10.3
2018-05-31T01:36:49.160Z,10.2
2018-05-31T01:37:39.967Z,10.2
2018-05-31T01:38:29.288Z,10.2
2018-05-31T01:39:19.667Z,10.2
2018-05-31T01:40:09.767Z,10.2
2018-05-31T01:41:00.289Z,10.2
2018-05-31T01:41:49.872Z,10.1
2018-05-31T01:42:39.888Z,10.1
2018-05-31T01:43:29.676Z,10.1
2018-05-31T01:44:20.702Z,10.1
2018-05-31T01:45:10.076Z,10.1
2018-05-31T01:46:00.139Z,10.1
2018-05-31T01:46:49.923Z,10.1
2018-05-31T01:47:42.416Z,10.1
2018-05-31T01:48:30.353Z,10.1
2018-05-31T01:49:20.412Z,10
2018-05-31T01:50:10.179Z,10.1
2018-05-31T01:51:00.241Z,10
2018-05-31T01:51:50.358Z,10
2018-05-31T01:52:40.351Z,10
2018-05-31T01:53:30.437Z,10
2018-05-31T01:54:20.496Z,10
2018-05-31T01:55:10.862Z,9.9
2018-05-31T01:56:00.624Z,9.9
2018-05-31T01:56:51.008Z,9.9
2018-05-31T01:57:41.042Z,9.9
2018-05-31T01:58:31.105Z,9.9
2018-05-31T01:59:21.157Z,9.9
2018-05-31T02:00:11.236Z,9.9
2018-05-31T02:01:01.315Z,9.9
2018-05-31T02:01:51.363Z,9.9
2018-05-31T02:02:41.426Z,9.8
2018-05-31T02:03:31.198Z,9.8
2018-05-31T02:04:21.541Z,9.8
2018-05-31T02:05:11.624Z,9.8
2018-05-31T02:06:01.385Z,9.8
2018-05-31T02:06:51.742Z,9.8
2018-05-31T02:07:41.510Z,9.8
2018-05-31T02:08:31.856Z,9.7
2018-05-31T02:09:21.920Z,9.7
2018-05-31T02:10:12.640Z,9.6
2018-05-31T02:11:02.064Z,9.6
2018-05-31T02:11:52.119Z,9.6
2018-05-31T02:12:41.910Z,9.6
2018-05-31T02:13:33.333Z,9.6
2018-05-31T02:14:22.301Z,9.5
2018-05-31T02:15:12.402Z,9.5
2018-05-31T02:16:02.135Z,9.5
2018-05-31T02:16:53.869Z,9.4
2018-05-31T02:17:42.566Z,9.4
2018-05-31T02:18:32.328Z,9.4
2018-05-31T02:19:22.110Z,9.4
2018-05-31T02:20:14.253Z,9.4
2018-05-31T02:21:02.817Z,9.4
2018-05-31T02:21:52.895Z,9.3
2018-05-31T02:22:42.950Z,9.3
2018-05-31T02:23:33.002Z,9.3
2018-05-31T02:24:22.568Z,9.3
2018-05-31T02:25:13.116Z,9.3
2018-05-31T02:26:03.217Z,9.3
2018-05-31T02:26:52.977Z,9.2
2018-05-31T02:27:43.337Z,9.2
2018-05-31T02:28:33.094Z,9.2
2018-05-31T02:29:23.458Z,9.1
2018-05-31T02:30:13.533Z,9.1
2018-05-31T02:31:03.672Z,9.1
2018-05-31T02:31:53.644Z,9.1
2018-05-31T02:32:43.700Z,9.1
2018-05-31T02:33:33.756Z,9.1
2018-05-31T02:34:23.528Z,9
2018-05-31T02:35:13.926Z,9
2018-05-31T02:36:04.004Z,9
2018-05-31T02:36:54.034Z,8.9
2018-05-31T02:37:44.105Z,8.9
2018-05-31T02:38:34.153Z,8.9
2018-05-31T02:39:25.014Z,8.9
2018-05-31T02:40:13.693Z,8.9
2018-05-31T02:41:04.349Z,8.9
2018-05-31T02:41:54.390Z,8.8
2018-05-31T02:42:46.229Z,8.8
2018-05-31T02:43:34.533Z,8.8
2018-05-31T02:44:24.587Z,8.8
2018-05-31T02:45:14.645Z,8.8
2018-05-31T02:46:06.122Z,8.8
2018-05-31T02:46:54.779Z,8.8
2018-05-31T02:47:44.859Z,8.8
2018-05-31T02:48:34.629Z,8.7
2018-05-31T02:49:24.404Z,8.7
2018-05-31T02:50:15.041Z,8.7
2018-05-31T02:51:05.103Z,8.6
2018-05-31T02:51:55.165Z,8.6
2018-05-31T02:52:45.252Z,8.6
2018-05-31T02:53:35.304Z,8.6
2018-05-31T02:54:25.092Z,8.6
2018-05-31T02:55:15.419Z,8.6
2018-05-31T02:56:05.496Z,8.6
2018-05-31T02:56:55.585Z,8.5
2018-05-31T02:57:45.585Z,8.5
2018-05-31T02:58:35.678Z,8.5
2018-05-31T02:59:25.744Z,8.4
2018-05-31T03:00:15.800Z,8.4
2018-05-31T03:01:05.559Z,8.4
2018-05-31T03:01:55.625Z,8.4
2018-05-31T03:02:45.691Z,8.4
2018-05-31T03:03:36.042Z,8.4
2018-05-31T03:04:25.910Z,8.4
2018-05-31T03:05:16.540Z,8.4
2018-05-31T03:06:06.249Z,8.4
2018-05-31T03:06:56.001Z,8.4
2018-05-31T03:07:46.231Z,8.4
2018-05-31T03:08:37.078Z,8.4
2018-05-31T03:09:26.536Z,8.4
2018-05-31T03:10:16.281Z,8.4
2018-05-31T03:11:06.624Z,8.4
2018-05-31T03:11:57.888Z,8.4
2018-05-31T03:12:46.747Z,8.4
2018-05-31T03:13:36.527Z,8.4
2018-05-31T03:14:26.309Z,8.4
2018-05-31T03:15:16.954Z,8.4
2018-05-31T03:16:07.040Z,8.4
2018-05-31T03:16:56.780Z,8.4
2018-05-31T03:17:47.154Z,8.4
2018-05-31T03:18:37.201Z,8.4
2018-05-31T03:19:27.286Z,8.3
2018-05-31T03:20:17.323Z,8.4
2018-05-31T03:21:07.103Z,8.4
2018-05-31T03:21:57.176Z,8.4
2018-05-31T03:22:47.517Z,8.4
2018-05-31T03:23:37.269Z,8.4
2018-05-31T03:24:27.665Z,8.4
2018-05-31T03:25:17.757Z,8.4
2018-05-31T03:26:07.771Z,8.4
2018-05-31T03:26:57.528Z,8.4
2018-05-31T03:27:47.601Z,8.4
2018-05-31T03:28:37.960Z,8.5
2018-05-31T03:29:28.011Z,8.5
2018-05-31T03:30:18.096Z,8.5
2018-05-31T03:31:09.094Z,8.5
2018-05-31T03:31:58.197Z,8.6
2018-05-31T03:32:47.985Z,8.6
2018-05-31T03:33:38.328Z,8.6
2018-05-31T03:34:29.978Z,8.6
2018-05-31T03:35:18.459Z,8.6
2018-05-31T03:36:08.234Z,8.6
2018-05-31T03:36:58.590Z,8.6
2018-05-31T03:37:49.363Z,8.7
2018-05-31T03:38:38.699Z,8.7
2018-05-31T03:39:28.482Z,8.7
2018-05-31T03:40:18.819Z,8.8
2018-05-31T03:41:08.894Z,8.8
2018-05-31T03:41:58.986Z,8.8
2018-05-31T03:42:49.053Z,8.8
2018-05-31T03:43:38.219Z,8.8
2018-05-31T03:44:29.162Z,8.9
2018-05-31T03:45:18.735Z,8.9
2018-05-31T03:46:09.288Z,9
2018-05-31T03:46:59.342Z,9.1
2018-05-31T03:47:49.410Z,9.1
2018-05-31T03:48:39.490Z,9.1
2018-05-31T03:49:28.955Z,9.1
2018-05-31T03:50:19.312Z,9.2
2018-05-31T03:51:09.668Z,9.3
2018-05-31T03:51:59.481Z,9.3
2018-05-31T03:52:49.792Z,9.4
2018-05-31T03:53:39.561Z,9.4
2018-05-31T03:54:29.617Z,9.5
2018-05-31T03:55:19.704Z,9.5
2018-05-31T03:56:09.758Z,9.6
2018-05-31T03:57:01.346Z,9.6
2018-05-31T03:57:49.883Z,9.7
2018-05-31T03:58:40.218Z,9.8
2018-05-31T03:59:30.311Z,9.8
2018-05-31T04:00:22.058Z,9.8
2018-05-31T04:01:10.456Z,9.9
2018-05-31T04:02:00.518Z,9.9
2018-05-31T04:02:50.546Z,10
2018-05-31T04:03:40.317Z,10.1
2018-05-31T04:04:30.706Z,10.1
2018-05-31T04:05:20.444Z,10.2
2018-05-31T04:06:10.821Z,10.3
2018-05-31T04:07:00.870Z,10.3
2018-05-31T04:07:50.957Z,10.4
2018-05-31T04:08:40.996Z,10.4
2018-05-31T04:09:31.071Z,10.4
2018-05-31T04:10:20.838Z,10.5
2018-05-31T04:11:11.193Z,10.6
2018-05-31T04:12:00.954Z,10.6
2018-05-31T04:12:51.313Z,10.7
2018-05-31T04:13:41.086Z,10.7
2018-05-31T04:14:30.853Z,10.8
2018-05-31T04:15:21.527Z,10.8
2018-05-31T04:16:11.289Z,10.9
2018-05-31T04:17:01.052Z,10.9
2018-05-31T04:17:51.424Z,11
2018-05-31T04:18:41.759Z,11.1
2018-05-31T04:19:32.433Z,11.1
2018-05-31T04:20:21.875Z,11.1
2018-05-31T04:21:11.954Z,11.2
2018-05-31T04:22:02.016Z,11.3
2018-05-31T04:22:52.825Z,11.3
2018-05-31T04:23:42.145Z,11.4
2018-05-31T04:24:32.206Z,11.4
2018-05-31T04:25:21.979Z,11.4
2018-05-31T04:26:13.843Z,11.5
2018-05-31T04:27:02.110Z,11.6
2018-05-31T04:27:52.185Z,11.7
2018-05-31T04:28:42.521Z,11.7
2018-05-31T04:29:33.083Z,11.8
2018-05-31T04:30:22.648Z,11.8
2018-05-31T04:31:12.438Z,11.9
2018-05-31T04:32:02.496Z,11.9
2018-05-31T04:32:52.853Z,11.9
2018-05-31T04:33:43.228Z,12
2018-05-31T04:34:32.977Z,12.1
2018-05-31T04:35:23.030Z,12.1
2018-05-31T04:36:13.078Z,12.1
2018-05-31T04:37:02.881Z,12.2
2018-05-31T04:37:53.213Z,12.3
2018-05-31T04:38:43.304Z,12.3
2018-05-31T04:39:33.053Z,12.4
2018-05-31T04:40:22.818Z,12.4
2018-05-31T04:41:13.480Z,12.6
2018-05-31T04:42:03.561Z,12.7
2018-05-31T04:42:53.595Z,12.8
2018-05-31T04:43:43.656Z,13.1
2018-05-31T04:44:33.444Z,13.3
2018-05-31T04:45:24.841Z,13.4
2018-05-31T04:46:13.867Z,13.6
2018-05-31T04:47:03.918Z,13.9
2018-05-31T04:47:53.982Z,14.1
2018-05-31T04:48:45.708Z,14.3
2018-05-31T04:49:34.109Z,14.6
2018-05-31T04:50:24.189Z,14.8
2018-05-31T04:51:13.949Z,15
2018-05-31T04:52:05.295Z,15.2
2018-05-31T04:52:54.399Z,15.5
2018-05-31T04:53:44.136Z,15.7
2018-05-31T04:54:34.202Z,15.9
2018-05-31T04:55:24.581Z,16.1
2018-05-31T04:56:14.623Z,16.4
2018-05-31T04:57:04.401Z,16.6
2018-05-31T04:57:54.801Z,16.8
2018-05-31T04:58:44.824Z,17.1
2018-05-31T04:59:34.879Z,17.3
2018-05-31T05:00:24.956Z,17.5
2018-05-31T05:01:14.697Z,17.7
2018-05-31T05:02:05.056Z,17.9
2018-05-31T05:02:55.271Z,18.3
2018-05-31T05:03:44.929Z,18.4
2018-05-31T05:05:25.323Z,18.9
2018-05-31T05:06:15.368Z,19.2
2018-05-31T05:07:05.164Z,19.4
2018-05-31T05:07:55.824Z,19.7
2018-05-31T05:08:44.998Z,19.9
2018-05-31T05:09:35.629Z,20.2
2018-05-31T05:10:25.701Z,20.5
2018-05-31T05:11:17.248Z,20.8
2018-05-31T05:12:05.817Z,21.1
2018-05-31T05:12:55.600Z,21.3
2018-05-31T05:13:45.082Z,21.6
2018-05-31T05:14:37.177Z,21.9
2018-05-31T05:15:26.082Z,22.2
2018-05-31T05:16:16.153Z,22.5
2018-05-31T05:17:06.220Z,22.8
2018-05-31T05:17:56.271Z,23
2018-05-31T05:18:46.337Z,23.4
2018-05-31T05:19:36.108Z,23.6
2018-05-31T05:20:26.463Z,23.9
2018-05-31T05:21:16.521Z,24.3
2018-05-31T05:22:06.299Z,24.6
2018-05-31T05:22:56.353Z,24.9
2018-05-31T05:23:46.430Z,25.1
2018-05-31T05:24:36.224Z,25.5
2018-05-31T05:25:26.842Z,25.8
2018-05-31T05:26:16.915Z,26.1
2018-05-31T05:27:06.975Z,26.4
2018-05-31T05:27:57.042Z,26.8
2018-05-31T05:28:47.109Z,27.1
2018-05-31T05:29:37.197Z,27.4
2018-05-31T05:30:27.228Z,27.7
2018-05-31T05:31:17.290Z,28.1
2018-05-31T05:32:06.767Z,28.4
2018-05-31T05:32:57.433Z,28.7
2018-05-31T05:33:47.661Z,29
2018-05-31T05:34:37.261Z,29.4
2018-05-31T05:35:27.306Z,29.7
2018-05-31T05:36:17.675Z,30
2018-05-31T05:37:08.325Z,30.4
2018-05-31T05:37:57.800Z,30.7
2018-05-31T05:38:47.851Z,31
2018-05-31T05:39:37.912Z,31.3
2018-05-31T05:40:29.611Z,31.7
2018-05-31T05:41:17.761Z,32
2018-05-31T05:42:07.851Z,32.3
2018-05-31T05:42:58.191Z,32.6
2018-05-31T05:43:48.260Z,33
2018-05-31T05:44:38.316Z,33.4
2018-05-31T05:45:28.143Z,33.6
2018-05-31T05:46:18.136Z,33.9
2018-05-31T05:47:08.490Z,34.3
2018-05-31T05:47:57.970Z,34.6
2018-05-31T05:48:48.617Z,34.9
2018-05-31T05:49:38.678Z,35.3
2018-05-31T05:50:28.179Z,35.6
2018-05-31T05:51:18.538Z,36
2018-05-31T05:52:08.873Z,36.4
2018-05-31T05:52:59.296Z,36.8
2018-05-31T05:53:48.797Z,37.2
2018-05-31T05:54:39.053Z,37.6
2018-05-31T05:55:29.129Z,38
2018-05-31T05:56:20.630Z,38.4
2018-05-31T05:57:08.975Z,38.8
2018-05-31T05:57:59.319Z,39.2
2018-05-31T05:58:49.375Z,39.6
2018-05-31T05:59:41.465Z,40.1
2018-05-31T06:00:29.507Z,40.4
2018-05-31T06:01:19.555Z,40.8
2018-05-31T06:02:09.648Z,41.2
2018-05-31T06:03:00.218Z,41.6
2018-05-31T06:03:49.742Z,42
2018-05-31T06:04:39.843Z,42.4
2018-05-31T06:05:29.888Z,42.8
2018-05-31T06:06:19.965Z,43.2
2018-05-31T06:07:09.438Z,43.6
2018-05-31T06:08:00.070Z,44
2018-05-31T06:08:50.152Z,44.4
2018-05-31T06:09:40.204Z,44.8
2018-05-31T06:10:30.297Z,45.3
2018-05-31T06:11:20.353Z,45.6
2018-05-31T06:12:10.103Z,46.1
2018-05-31T06:13:00.462Z,46.5
2018-05-31T06:13:50.525Z,46.9
2018-05-31T06:14:40.600Z,47.3
2018-05-31T06:15:32.081Z,47.6
2018-05-31T06:16:20.705Z,48
2018-05-31T06:17:10.485Z,48.4
2018-05-31T06:18:00.836Z,48.8
2018-05-31T06:18:53.189Z,49.1
2018-05-31T06:19:41.024Z,49.6
2018-05-31T06:20:31.047Z,49.9
2018-05-31T06:21:20.806Z,50.3
2018-05-31T06:22:12.505Z,50.7
2018-05-31T06:23:01.311Z,51.1
2018-05-31T06:23:51.304Z,51.4
2018-05-31T06:24:41.644Z,51.8
2018-05-31T06:25:31.421Z,52.2
2018-05-31T06:26:21.489Z,52.6
2018-05-31T06:27:11.258Z,52.9
2018-05-31T06:28:01.601Z,53.2
2018-05-31T06:28:51.654Z,53.5
2018-05-31T06:29:40.842Z,53.8
2018-05-31T06:30:31.806Z,54.4
2018-05-31T06:31:21.938Z,55.4
2018-05-31T06:32:11.952Z,54.8
2018-05-31T06:33:02.017Z,52.9
2018-05-31T06:33:52.055Z,49.5
2018-05-31T06:34:42.076Z,46.8
2018-05-31T06:35:32.163Z,45.1
2018-05-31T06:36:22.198Z,44.2
2018-05-31T06:37:12.465Z,43.6
2018-05-31T06:38:02.346Z,43.3
2018-05-31T06:38:52.407Z,43.3
2018-05-31T06:39:42.489Z,43.5
2018-05-31T06:40:32.533Z,43.9
2018-05-31T06:41:22.317Z,44.4
2018-05-31T06:42:12.385Z,44.9
2018-05-31T06:43:02.858Z,45.6
2018-05-31T06:43:52.790Z,46.4
2018-05-31T06:44:42.848Z,47.1
2018-05-31T06:45:32.900Z,47.8
2018-05-31T06:46:22.997Z,48.5
2018-05-31T06:47:12.777Z,49.2
2018-05-31T06:48:03.111Z,49.9
2018-05-31T06:48:53.181Z,50.6
2018-05-31T06:49:42.980Z,51.3
2018-05-31T06:51:23.356Z,52.6
2018-05-31T06:52:13.129Z,53.2
2018-05-31T06:53:03.485Z,54.2
2018-05-31T06:53:53.290Z,55.3
2018-05-31T06:54:43.340Z,54.2
2018-05-31T06:55:33.412Z,52.8
2018-05-31T06:56:23.774Z,51
2018-05-31T06:57:13.795Z,49.4
2018-05-31T06:58:03.401Z,48.5
2018-05-31T06:58:53.658Z,48
2018-05-31T06:59:43.984Z,48
2018-05-31T07:00:33.812Z,48.3
2018-05-31T07:01:23.846Z,48.8
2018-05-31T07:02:13.927Z,49.3
2018-05-31T07:03:04.250Z,49.9
2018-05-31T07:03:54.333Z,50.6
2018-05-31T07:04:44.376Z,51.4
2018-05-31T07:05:34.431Z,52.1
2018-05-31T07:06:24.502Z,52.9
2018-05-31T07:07:14.571Z,53.7
2018-05-31T07:08:04.623Z,55.1
2018-05-31T07:08:54.416Z,56.1
2018-05-31T07:09:44.484Z,55.8
2018-05-31T07:10:34.830Z,55.2
2018-05-31T07:11:24.416Z,54.2
2018-05-31T07:12:14.957Z,52.8
2018-05-31T07:13:05.024Z,51.8
2018-05-31T07:13:55.081Z,51.7
2018-05-31T07:14:45.146Z,52.3
2018-05-31T07:15:35.228Z,52.9
2018-05-31T07:16:25.005Z,53.1
2018-05-31T07:17:15.069Z,53.1
2018-05-31T07:18:05.395Z,52.6
2018-05-31T07:18:55.456Z,52.2
2018-05-31T07:19:45.529Z,52
2018-05-31T07:20:35.372Z,52.1
2018-05-31T07:22:15.738Z,52.7
2018-05-31T07:23:05.777Z,53
2018-05-31T07:23:55.898Z,53.1
2018-05-31T07:24:45.934Z,53.2
2018-05-31T07:25:35.705Z,53.3
2018-05-31T07:26:26.052Z,53.3
2018-05-31T07:27:15.957Z,53.4
2018-05-31T07:28:06.183Z,53.6
2018-05-31T07:28:56.253Z,53.8
2018-05-31T07:29:46.326Z,53.9
2018-05-31T07:30:36.128Z,54
2018-05-31T07:31:26.163Z,54.1
2018-05-31T07:32:16.222Z,54.3
2018-05-31T07:33:06.284Z,54.5
2018-05-31T07:33:56.618Z,54.7
2018-05-31T07:34:46.690Z,54.9
2018-05-31T07:35:36.794Z,55.1
2018-05-31T07:36:26.867Z,55.1
2018-05-31T07:37:16.615Z,55.3
2018-05-31T07:38:06.682Z,55.4
2018-05-31T07:38:57.027Z,55.5
2018-05-31T07:39:47.094Z,55.6
2018-05-31T07:40:37.152Z,55.7
2018-05-31T07:41:26.926Z,55.8
2018-05-31T07:42:17.283Z,55.9
2018-05-31T07:43:07.322Z,55.9
2018-05-31T07:43:57.113Z,56.1
2018-05-31T07:44:47.446Z,56.2
2018-05-31T07:45:37.538Z,56.3
2018-05-31T07:46:27.029Z,56.4
2018-05-31T07:47:17.365Z,56.6
2018-05-31T07:48:07.718Z,56.7
2018-05-31T07:48:57.796Z,56.8
2018-05-31T07:49:47.565Z,56.8
2018-05-31T07:50:37.637Z,56.8
2018-05-31T07:51:27.971Z,56.8
2018-05-31T07:52:18.052Z,56.8
2018-05-31T07:53:08.109Z,56.8
2018-05-31T07:53:58.185Z,56.8
2018-05-31T07:54:47.935Z,56.9
2018-05-31T07:55:38.015Z,56.9
2018-05-31T07:56:28.077Z,56.9
2018-05-31T07:57:18.424Z,57.1
2018-05-31T07:58:08.928Z,57.2
2018-05-31T07:58:57.986Z,57.3
2018-05-31T07:59:48.609Z,57.5
2018-05-31T08:01:28.732Z,57.9
2018-05-31T08:02:18.810Z,58.1
2018-05-31T08:03:08.915Z,58.2
2018-05-31T08:03:58.938Z,58.3
2018-05-31T08:04:49.024Z,58.4
2018-05-31T08:06:28.643Z,58.7
2018-05-31T08:07:19.203Z,58.9
2018-05-31T08:08:09.285Z,58.9
2018-05-31T08:08:59.073Z,58.9
2018-05-31T08:09:49.413Z,58.9
2018-05-31T08:10:39.218Z,58.9
2018-05-31T08:11:29.560Z,58.9
2018-05-31T08:12:19.061Z,58.9
2018-05-31T08:13:09.658Z,58.9
2018-05-31T08:13:59.721Z,59
2018-05-31T08:14:49.780Z,59.1
2018-05-31T08:15:39.840Z,59.3
2018-05-31T08:16:29.352Z,59.3
2018-05-31T08:17:19.992Z,59.4
2018-05-31T08:18:10.024Z,59.6
2018-05-31T08:18:59.827Z,59.8
2018-05-31T08:19:49.891Z,59.9
2018-05-31T08:20:40.049Z,60.1
2018-05-31T08:21:30.307Z,60.3
2018-05-31T08:22:20.358Z,60.4
2018-05-31T08:23:10.132Z,60.6
2018-05-31T08:24:00.202Z,60.6
2018-05-31T08:24:50.272Z,60.6
2018-05-31T08:25:40.044Z,60.6
2018-05-31T08:26:30.397Z,60.6
2018-05-31T08:27:20.727Z,60.6
2018-05-31T08:28:10.825Z,60.7
2018-05-31T08:29:00.887Z,60.8
2018-05-31T08:29:50.939Z,60.9
2018-05-31T08:30:40.999Z,61
2018-05-31T08:31:31.634Z,61.1
2018-05-31T08:32:21.134Z,61.3
2018-05-31T08:33:10.924Z,61.4
2018-05-31T08:34:01.271Z,61.5
2018-05-31T08:34:51.353Z,61.7
2018-05-31T08:35:41.399Z,61.8
2018-05-31T08:36:31.443Z,61.9
2018-05-31T08:37:21.495Z,62.1
2018-05-31T08:38:11.292Z,62.2
2018-05-31T08:39:01.646Z,62.4
2018-05-31T08:39:51.700Z,62.5
2018-05-31T08:40:41.766Z,62.6
2018-05-31T08:41:31.541Z,62.8
2018-05-31T08:42:21.897Z,62.9
2018-05-31T08:43:11.965Z,63.1
2018-05-31T08:44:02.276Z,63.2
2018-05-31T08:44:52.091Z,63.2
2018-05-31T08:45:42.155Z,63.1
2018-05-31T08:46:31.939Z,63.1
2018-05-31T08:47:21.705Z,63.1
2018-05-31T08:48:12.380Z,63.1
2018-05-31T08:49:01.650Z,62.9
2018-05-31T08:49:52.465Z,62.8
2018-05-31T08:50:42.536Z,62.7
2018-05-31T08:51:32.038Z,62.8
2018-05-31T08:52:22.365Z,62.9
2018-05-31T08:53:12.725Z,63
2018-05-31T08:54:02.854Z,63.1
2018-05-31T08:54:52.589Z,63.3
2018-05-31T08:55:42.152Z,63.4
2018-05-31T08:56:32.980Z,63.4
2018-05-31T08:57:22.928Z,63.4
2018-05-31T08:58:13.116Z,63.4
2018-05-31T08:59:03.191Z,63.4
2018-05-31T08:59:53.277Z,63.5
2018-05-31T09:00:43.313Z,63.7
2018-05-31T09:01:33.364Z,63.8
2018-05-31T09:02:23.440Z,64.1
2018-05-31T09:03:13.490Z,64.3
2018-05-31T09:04:03.286Z,64.5
2018-05-31T09:04:53.618Z,64.8
2018-05-31T09:05:43.722Z,64.9
2018-05-31T09:06:33.469Z,65.2
2018-05-31T09:07:23.821Z,65.3
2018-05-31T09:08:13.902Z,65.4
2018-05-31T09:09:03.957Z,65.5
2018-05-31T09:09:54.004Z,65.6
2018-05-31T09:10:44.064Z,65.6
2018-05-31T09:11:34.145Z,65.7
2018-05-31T09:12:24.180Z,65.7
2018-05-31T09:13:13.999Z,65.8
2018-05-31T09:14:04.340Z,65.9
2018-05-31T09:14:54.419Z,65.9
2018-05-31T09:15:44.173Z,66
2018-05-31T09:16:34.528Z,66.1
2018-05-31T09:17:24.625Z,66.1
2018-05-31T09:18:14.664Z,66.3
2018-05-31T09:19:04.728Z,66.3
2018-05-31T09:19:54.501Z,66.4
2018-05-31T09:20:44.856Z,66.4
2018-05-31T09:21:34.910Z,66.4
2018-05-31T09:22:24.963Z,66.4
2018-05-31T09:23:15.050Z,66.4
2018-05-31T09:24:05.094Z,66.4
2018-05-31T09:24:55.181Z,66.3
2018-05-31T09:25:45.214Z,66.4
2018-05-31T09:26:35.308Z,66.5
2018-05-31T09:27:25.080Z,66.6
2018-05-31T09:28:15.459Z,66.7
2018-05-31T09:29:05.502Z,66.8
2018-05-31T09:29:55.279Z,66.8
2018-05-31T09:30:45.611Z,66.9
2018-05-31T09:31:35.682Z,66.9
2018-05-31T09:32:25.456Z,66.8
2018-05-31T09:33:15.807Z,66.8
2018-05-31T09:34:05.888Z,66.8
2018-05-31T09:34:55.980Z,66.8
2018-05-31T09:35:46.028Z,66.7
2018-05-31T09:36:36.083Z,66.7
2018-05-31T09:37:26.129Z,66.6
2018-05-31T09:38:15.887Z,66.5
2018-05-31T09:39:06.257Z,66.4
2018-05-31T09:39:56.299Z,66.4
2018-05-31T09:40:46.395Z,66.3
2018-05-31T09:41:36.151Z,66.3
2018-05-31T09:42:26.502Z,66.3
2018-05-31T09:43:16.578Z,66.2
2018-05-31T09:44:06.645Z,66.1
2018-05-31T09:44:56.719Z,65.8
2018-05-31T09:45:46.777Z,65.6
2018-05-31T09:46:36.715Z,65.4
2018-05-31T09:47:26.923Z,65.1
2018-05-31T09:48:16.989Z,64.9
2018-05-31T09:49:06.185Z,64.8
2018-05-31T09:49:57.083Z,64.7
2018-05-31T09:50:47.177Z,64.6
2018-05-31T09:51:37.251Z,64.5
2018-05-31T09:52:26.740Z,64.4
2018-05-31T09:53:17.364Z,64.4
2018-05-31T09:54:07.126Z,64.4
2018-05-31T09:54:57.484Z,64.6
2018-05-31T09:55:47.525Z,64.7
2018-05-31T09:56:37.615Z,64.9
2018-05-31T09:57:27.687Z,65.1
2018-05-31T09:58:17.859Z,65.3
2018-05-31T09:59:07.539Z,65.6
2018-05-31T09:59:57.283Z,65.7
2018-05-31T10:00:47.641Z,65.8
2018-05-31T10:01:38.046Z,65.9
2018-05-31T10:02:28.056Z,65.9
2018-05-31T10:03:18.142Z,65.9
2018-05-31T10:04:07.630Z,65.8
2018-05-31T10:04:57.708Z,65.7
2018-05-31T10:05:48.046Z,65.8
2018-05-31T10:06:38.383Z,65.7
2018-05-31T10:07:28.446Z,65.7
2018-05-31T10:08:18.503Z,65.7
2018-05-31T10:09:08.609Z,65.7
2018-05-31T10:09:58.342Z,65.6
2018-05-31T10:10:48.694Z,65.4
2018-05-31T10:11:38.782Z,65.3
2018-05-31T10:12:28.844Z,65.1
2018-05-31T10:13:18.900Z,65.1
2018-05-31T10:14:08.953Z,64.9
2018-05-31T10:14:58.812Z,64.9
2018-05-31T10:15:48.811Z,64.8
2018-05-31T10:16:39.130Z,64.7
2018-05-31T10:17:29.224Z,64.7
2018-05-31T10:18:18.986Z,64.8
2018-05-31T10:19:09.343Z,64.9
2018-05-31T10:19:59.407Z,65.2
2018-05-31T10:20:49.473Z,65.5
2018-05-31T10:21:39.538Z,65.7
2018-05-31T10:22:29.622Z,65.9
2018-05-31T10:23:19.659Z,66.2
2018-05-31T10:24:09.451Z,66.5
2018-05-31T10:24:59.500Z,66.8
2018-05-31T10:25:49.857Z,66.8
2018-05-31T10:26:39.912Z,66.9
2018-05-31T10:27:30.001Z,67.1
2018-05-31T10:28:20.047Z,67.1
2018-05-31T10:29:09.533Z,67.3
2018-05-31T10:30:00.183Z,67.4
2018-05-31T10:30:50.241Z,67.7
2018-05-31T10:31:40.026Z,67.9
2018-05-31T10:32:30.395Z,68
2018-05-31T10:33:20.155Z,68.2
2018-05-31T10:34:10.219Z,68.4
2018-05-31T10:35:00.268Z,68.5
2018-05-31T10:35:50.364Z,68.6
2018-05-31T10:36:40.687Z,68.8
2018-05-31T10:37:30.769Z,69
2018-05-31T10:38:20.588Z,69.1
2018-05-31T10:39:10.890Z,69.1
2018-05-31T10:40:00.974Z,69.1
2018-05-31T10:40:51.007Z,68.9
2018-05-31T10:41:41.093Z,68.8
2018-05-31T10:42:30.880Z,68.7
2018-05-31T10:43:21.213Z,68.6
2018-05-31T10:44:11.276Z,68.5
2018-05-31T10:45:01.380Z,68.4
2018-05-31T10:45:51.396Z,68.4
2018-05-31T10:46:41.516Z,68.5
2018-05-31T10:47:31.561Z,68.4
2018-05-31T10:48:21.591Z,67.7
2018-05-31T10:49:11.077Z,66.4
2018-05-31T10:50:01.739Z,65.2
2018-05-31T10:50:51.508Z,64.2
2018-05-31T10:51:41.867Z,63.6
2018-05-31T10:52:31.644Z,63.4
2018-05-31T10:53:21.693Z,63.2
2018-05-31T10:54:12.076Z,62.9
2018-05-31T10:55:02.131Z,62.4
2018-05-31T10:55:52.175Z,61.8
2018-05-31T10:56:42.226Z,61
2018-05-31T10:57:32.303Z,60.4
2018-05-31T10:58:21.819Z,59.9
2018-05-31T10:59:12.576Z,59.8
2018-05-31T11:00:02.234Z,60
2018-05-31T11:00:52.005Z,60.7
2018-05-31T11:01:42.327Z,61.6
2018-05-31T11:02:32.676Z,62.9
2018-05-31T11:03:22.478Z,64.6
2018-05-31T11:04:12.821Z,67.1
2018-05-31T11:05:02.897Z,67.8
2018-05-31T11:05:52.953Z,67.1
2018-05-31T11:06:43.003Z,65.3
2018-05-31T11:07:33.058Z,63.3
2018-05-31T11:08:23.142Z,61.6
2018-05-31T11:09:12.917Z,60.5
2018-05-31T11:10:03.309Z,59.6
2018-05-31T11:10:53.317Z,59
2018-05-31T11:11:43.164Z,59
2018-05-31T11:12:33.438Z,59.5
2018-05-31T11:13:23.235Z,60.3
2018-05-31T11:14:13.576Z,61.6
2018-05-31T11:15:03.788Z,63
2018-05-31T11:15:53.707Z,64.4
2018-05-31T11:16:43.773Z,66.8